sensor_id;sensor_type;location;lat;lon;timestamp;temperature;humidity
20526;DHT22;10421;49.142;9.232;2023-11-21T00:00:21;11.60;99.90
20526;DHT22;10421;49.142;9.232;2023-11-21T00:02:49;11.60;99.90
20526;DHT22;10421;49.142;9.232;2023-11-21T00:05:16;11.60;99.90
20526;DHT22;10421;49.142;9.232;2023-11-21T00:07:43;11.60;99.90
20526;DHT22;10421;49.142;9.232;2023-11-21T00:10:10;11.60;99.90
20526;DHT22;10421;49.142;9.232;2023-11-21T00:12:39;11.70;99.90
20526;DHT22;10421;49.142;9.232;2023-11-21T00:15:08;11.60;99.90
20526;DHT22;10421;49.142;9.232;2023-11-21T00:17:36;11.50;99.90
20526;DHT22;10421;49.142;9.232;2023-11-21T00:20:06;11.50;99.90
20526;DHT22;10421;49.142;9.232;2023-11-21T00:22:33;11.50;99.90
20526;DHT22;10421;49.142;9.232;2023-11-21T00:25:00;11.50;99.90
20526;DHT22;10421;49.142;9.232;2023-11-21T00:27:27;11.50;99.90
20526;DHT22;10421;49.142;9.232;2023-11-21T00:29:53;11.50;99.90
20526;DHT22;10421;49.142;9.232;2023-11-21T00:32:20;11.50;99.90
20526;DHT22;10421;49.142;9.232;2023-11-21T00:34:47;11.40;99.90
20526;DHT22;10421;49.142;9.232;2023-11-21T00:37:15;11.40;99.90
20526;DHT22;10421;49.142;9.232;2023-11-21T00:39:41;11.40;99.90
20526;DHT22;10421;49.142;9.232;2023-11-21T00:42:08;11.40;99.90
20526;DHT22;10421;49.142;9.232;2023-11-21T00:44:37;11.40;99.90
20526;DHT22;10421;49.142;9.232;2023-11-21T00:47:04;11.30;99.90
20526;DHT22;10421;49.142;9.232;2023-11-21T00:49:31;11.30;99.90
20526;DHT22;10421;49.142;9.232;2023-11-21T00:51:57;11.20;99.90
20526;DHT22;10421;49.142;9.232;2023-11-21T00:54:27;11.30;99.90
20526;DHT22;10421;49.142;9.232;2023-11-21T00:56:53;11.30;99.90
20526;DHT22;10421;49.142;9.232;2023-11-21T00:59:20;11.30;99.90
20526;DHT22;10421;49.142;9.232;2023-11-21T01:01:48;11.30;99.90
20526;DHT22;10421;49.142;9.232;2023-11-21T01:04:15;11.40;99.90
20526;DHT22;10421;49.142;9.232;2023-11-21T01:06:42;11.50;99.90
20526;DHT22;10421;49.142;9.232;2023-11-21T01:09:08;11.50;99.90
20526;DHT22;10421;49.142;9.232;2023-11-21T01:11:37;11.50;99.90
20526;DHT22;10421;49.142;9.232;2023-11-21T01:14:04;11.60;99.90
20526;DHT22;10421;49.142;9.232;2023-11-21T01:16:32;11.60;99.90
20526;DHT22;10421;49.142;9.232;2023-11-21T01:18:59;11.70;99.90
20526;DHT22;10421;49.142;9.232;2023-11-21T01:21:25;11.60;99.90
20526;DHT22;10421;49.142;9.232;2023-11-21T01:23:53;11.50;99.90
20526;DHT22;10421;49.142;9.232;2023-11-21T01:26:20;11.60;99.90
20526;DHT22;10421;49.142;9.232;2023-11-21T01:28:48;11.50;99.90
20526;DHT22;10421;49.142;9.232;2023-11-21T01:31:15;11.40;99.90
20526;DHT22;10421;49.142;9.232;2023-11-21T01:33:42;11.40;99.90
20526;DHT22;10421;49.142;9.232;2023-11-21T01:36:10;11.50;99.90
20526;DHT22;10421;49.142;9.232;2023-11-21T01:38:36;11.50;99.90
20526;DHT22;10421;49.142;9.232;2023-11-21T01:41:04;11.50;99.90
20526;DHT22;10421;49.142;9.232;2023-11-21T01:43:31;11.50;99.90
20526;DHT22;10421;49.142;9.232;2023-11-21T01:45:59;11.60;99.90
20526;DHT22;10421;49.142;9.232;2023-11-21T01:48:27;11.60;99.90
20526;DHT22;10421;49.142;9.232;2023-11-21T01:50:54;11.60;99.90
20526;DHT22;10421;49.142;9.232;2023-11-21T01:53:21;11.60;99.90
20526;DHT22;10421;49.142;9.232;2023-11-21T01:55:48;11.60;99.90
20526;DHT22;10421;49.142;9.232;2023-11-21T01:58:16;11.70;99.90
20526;DHT22;10421;49.142;9.232;2023-11-21T02:00:42;11.80;99.90
20526;DHT22;10421;49.142;9.232;2023-11-21T02:03:11;11.80;99.90
20526;DHT22;10421;49.142;9.232;2023-11-21T02:05:38;11.90;99.90
20526;DHT22;10421;49.142;9.232;2023-11-21T02:08:04;12.00;99.90
20526;DHT22;10421;49.142;9.232;2023-11-21T02:10:32;12.00;99.90
20526;DHT22;10421;49.142;9.232;2023-11-21T02:12:59;12.10;99.90
20526;DHT22;10421;49.142;9.232;2023-11-21T02:15:28;12.10;99.90
20526;DHT22;10421;49.142;9.232;2023-11-21T02:17:55;12.00;99.90
20526;DHT22;10421;49.142;9.232;2023-11-21T02:20:25;12.10;99.90
20526;DHT22;10421;49.142;9.232;2023-11-21T02:22:56;12.10;99.90
20526;DHT22;10421;49.142;9.232;2023-11-21T02:25:24;12.10;99.90
20526;DHT22;10421;49.142;9.232;2023-11-21T02:27:51;12.10;99.90
20526;DHT22;10421;49.142;9.232;2023-11-21T02:30:20;12.10;99.90
20526;DHT22;10421;49.142;9.232;2023-11-21T02:32:47;12.00;99.90
20526;DHT22;10421;49.142;9.232;2023-11-21T02:35:14;11.90;99.90
20526;DHT22;10421;49.142;9.232;2023-11-21T02:37:41;11.90;99.90
20526;DHT22;10421;49.142;9.232;2023-11-21T02:40:10;11.80;99.90
20526;DHT22;10421;49.142;9.232;2023-11-21T02:42:39;11.70;99.90
20526;DHT22;10421;49.142;9.232;2023-11-21T02:45:07;11.70;99.90
20526;DHT22;10421;49.142;9.232;2023-11-21T02:47:34;11.60;99.90
20526;DHT22;10421;49.142;9.232;2023-11-21T02:50:01;11.70;99.90
20526;DHT22;10421;49.142;9.232;2023-11-21T02:52:27;11.70;99.90
20526;DHT22;10421;49.142;9.232;2023-11-21T02:54:54;11.80;99.90
20526;DHT22;10421;49.142;9.232;2023-11-21T02:57:22;11.80;99.90
20526;DHT22;10421;49.142;9.232;2023-11-21T02:59:49;11.90;99.90
20526;DHT22;10421;49.142;9.232;2023-11-21T03:02:16;11.90;99.90
20526;DHT22;10421;49.142;9.232;2023-11-21T03:04:42;12.00;99.90
20526;DHT22;10421;49.142;9.232;2023-11-21T03:07:09;12.00;99.90
20526;DHT22;10421;49.142;9.232;2023-11-21T03:09:36;12.00;99.90
20526;DHT22;10421;49.142;9.232;2023-11-21T03:12:03;12.00;99.90
20526;DHT22;10421;49.142;9.232;2023-11-21T03:14:32;12.00;99.90
20526;DHT22;10421;49.142;9.232;2023-11-21T03:16:58;12.10;99.90
20526;DHT22;10421;49.142;9.232;2023-11-21T03:19:25;12.10;99.90
20526;DHT22;10421;49.142;9.232;2023-11-21T03:21:52;12.20;99.90
20526;DHT22;10421;49.142;9.232;2023-11-21T03:24:19;12.20;99.90
20526;DHT22;10421;49.142;9.232;2023-11-21T03:26:48;12.10;99.90
20526;DHT22;10421;49.142;9.232;2023-11-21T03:29:15;12.10;99.90
20526;DHT22;10421;49.142;9.232;2023-11-21T03:31:43;12.10;99.90
20526;DHT22;10421;49.142;9.232;2023-11-21T03:34:16;12.10;99.90
20526;DHT22;10421;49.142;9.232;2023-11-21T03:36:43;12.10;99.90
20526;DHT22;10421;49.142;9.232;2023-11-21T03:39:11;12.00;99.90
20526;DHT22;10421;49.142;9.232;2023-11-21T03:41:38;11.90;99.90
20526;DHT22;10421;49.142;9.232;2023-11-21T03:44:05;11.90;99.90
20526;DHT22;10421;49.142;9.232;2023-11-21T03:46:32;11.90;99.90
20526;DHT22;10421;49.142;9.232;2023-11-21T03:49:00;11.90;99.90
20526;DHT22;10421;49.142;9.232;2023-11-21T03:51:26;12.00;99.90
20526;DHT22;10421;49.142;9.232;2023-11-21T03:53:53;12.00;99.90
20526;DHT22;10421;49.142;9.232;2023-11-21T03:56:20;12.10;99.90
20526;DHT22;10421;49.142;9.232;2023-11-21T03:58:47;12.00;99.90
20526;DHT22;10421;49.142;9.232;2023-11-21T04:01:19;12.10;99.90
20526;DHT22;10421;49.142;9.232;2023-11-21T04:03:47;12.10;99.90
20526;DHT22;10421;49.142;9.232;2023-11-21T04:06:15;12.00;99.90
20526;DHT22;10421;49.142;9.232;2023-11-21T04:08:42;12.00;99.90
20526;DHT22;10421;49.142;9.232;2023-11-21T04:11:09;12.00;99.90
20526;DHT22;10421;49.142;9.232;2023-11-21T04:13:37;11.90;99.90
20526;DHT22;10421;49.142;9.232;2023-11-21T04:16:05;11.90;99.90
20526;DHT22;10421;49.142;9.232;2023-11-21T04:18:32;11.80;99.90
20526;DHT22;10421;49.142;9.232;2023-11-21T04:20:59;11.70;99.90
20526;DHT22;10421;49.142;9.232;2023-11-21T04:23:28;11.70;99.90
20526;DHT22;10421;49.142;9.232;2023-11-21T04:25:55;11.70;99.90
20526;DHT22;10421;49.142;9.232;2023-11-21T04:28:23;11.80;99.90
20526;DHT22;10421;49.142;9.232;2023-11-21T04:30:49;11.80;99.90
20526;DHT22;10421;49.142;9.232;2023-11-21T04:33:16;11.80;99.90
20526;DHT22;10421;49.142;9.232;2023-11-21T04:35:43;11.80;99.90
20526;DHT22;10421;49.142;9.232;2023-11-21T04:38:10;11.80;99.90
20526;DHT22;10421;49.142;9.232;2023-11-21T04:40:38;11.80;99.90
20526;DHT22;10421;49.142;9.232;2023-11-21T04:43:04;11.80;99.90
20526;DHT22;10421;49.142;9.232;2023-11-21T04:45:31;11.90;99.90
20526;DHT22;10421;49.142;9.232;2023-11-21T04:47:58;11.90;99.90
20526;DHT22;10421;49.142;9.232;2023-11-21T04:50:24;11.90;99.90
20526;DHT22;10421;49.142;9.232;2023-11-21T04:52:52;11.90;99.90
20526;DHT22;10421;49.142;9.232;2023-11-21T04:55:19;11.90;99.90
20526;DHT22;10421;49.142;9.232;2023-11-21T04:57:47;12.00;99.90
20526;DHT22;10421;49.142;9.232;2023-11-21T05:00:14;11.90;99.90
20526;DHT22;10421;49.142;9.232;2023-11-21T05:02:41;11.90;99.90
20526;DHT22;10421;49.142;9.232;2023-11-21T05:05:09;11.90;99.90
20526;DHT22;10421;49.142;9.232;2023-11-21T05:07:37;11.90;99.90
20526;DHT22;10421;49.142;9.232;2023-11-21T05:10:04;11.90;99.90
20526;DHT22;10421;49.142;9.232;2023-11-21T05:12:34;11.80;99.90
20526;DHT22;10421;49.142;9.232;2023-11-21T05:15:04;11.80;99.90
20526;DHT22;10421;49.142;9.232;2023-11-21T05:17:35;11.80;99.90
20526;DHT22;10421;49.142;9.232;2023-11-21T05:20:02;11.80;99.90
20526;DHT22;10421;49.142;9.232;2023-11-21T05:22:34;11.70;99.90
20526;DHT22;10421;49.142;9.232;2023-11-21T05:25:01;11.60;99.90
20526;DHT22;10421;49.142;9.232;2023-11-21T05:27:28;11.70;99.90
20526;DHT22;10421;49.142;9.232;2023-11-21T05:29:55;11.60;99.90
20526;DHT22;10421;49.142;9.232;2023-11-21T05:32:23;11.60;99.90
20526;DHT22;10421;49.142;9.232;2023-11-21T05:34:50;11.60;99.90
20526;DHT22;10421;49.142;9.232;2023-11-21T05:37:16;11.60;99.90
20526;DHT22;10421;49.142;9.232;2023-11-21T05:39:43;11.60;99.90
20526;DHT22;10421;49.142;9.232;2023-11-21T05:42:10;11.70;99.90
20526;DHT22;10421;49.142;9.232;2023-11-21T05:44:37;11.70;99.90
20526;DHT22;10421;49.142;9.232;2023-11-21T05:47:04;11.80;99.90
20526;DHT22;10421;49.142;9.232;2023-11-21T05:49:34;11.80;99.90
20526;DHT22;10421;49.142;9.232;2023-11-21T05:52:01;11.90;99.90
20526;DHT22;10421;49.142;9.232;2023-11-21T05:54:27;11.90;99.90
20526;DHT22;10421;49.142;9.232;2023-11-21T05:56:54;11.90;99.90
20526;DHT22;10421;49.142;9.232;2023-11-21T05:59:21;11.90;99.90
20526;DHT22;10421;49.142;9.232;2023-11-21T06:01:47;11.90;99.90
20526;DHT22;10421;49.142;9.232;2023-11-21T06:04:14;11.80;99.90
20526;DHT22;10421;49.142;9.232;2023-11-21T06:06:42;11.80;99.90
20526;DHT22;10421;49.142;9.232;2023-11-21T06:09:09;11.80;99.90
20526;DHT22;10421;49.142;9.232;2023-11-21T06:11:37;11.90;99.90
20526;DHT22;10421;49.142;9.232;2023-11-21T06:14:04;11.90;99.90
20526;DHT22;10421;49.142;9.232;2023-11-21T06:16:33;11.90;99.90
20526;DHT22;10421;49.142;9.232;2023-11-21T06:19:00;11.90;99.90
20526;DHT22;10421;49.142;9.232;2023-11-21T06:21:27;11.80;99.90
20526;DHT22;10421;49.142;9.232;2023-11-21T06:23:55;11.80;99.90
20526;DHT22;10421;49.142;9.232;2023-11-21T06:26:22;11.80;99.90
20526;DHT22;10421;49.142;9.232;2023-11-21T06:28:49;11.70;99.90
20526;DHT22;10421;49.142;9.232;2023-11-21T06:31:18;11.70;99.90
20526;DHT22;10421;49.142;9.232;2023-11-21T06:33:45;11.70;99.90
20526;DHT22;10421;49.142;9.232;2023-11-21T06:36:12;11.70;99.90
20526;DHT22;10421;49.142;9.232;2023-11-21T06:38:38;11.70;99.90
20526;DHT22;10421;49.142;9.232;2023-11-21T06:41:07;11.70;99.90
20526;DHT22;10421;49.142;9.232;2023-11-21T06:43:33;11.80;99.90
20526;DHT22;10421;49.142;9.232;2023-11-21T06:46:01;11.80;99.90
20526;DHT22;10421;49.142;9.232;2023-11-21T06:48:28;11.80;99.90
20526;DHT22;10421;49.142;9.232;2023-11-21T06:50:55;11.80;99.90
20526;DHT22;10421;49.142;9.232;2023-11-21T06:53:22;11.80;99.90
20526;DHT22;10421;49.142;9.232;2023-11-21T06:55:49;11.80;99.90
20526;DHT22;10421;49.142;9.232;2023-11-21T06:58:17;11.90;99.90
20526;DHT22;10421;49.142;9.232;2023-11-21T07:00:43;11.80;99.90
20526;DHT22;10421;49.142;9.232;2023-11-21T07:03:12;11.80;99.90
20526;DHT22;10421;49.142;9.232;2023-11-21T07:05:39;11.70;99.90
20526;DHT22;10421;49.142;9.232;2023-11-21T07:08:05;11.70;99.90
20526;DHT22;10421;49.142;9.232;2023-11-21T07:10:33;11.70;99.90
20526;DHT22;10421;49.142;9.232;2023-11-21T07:13:00;11.70;99.90
20526;DHT22;10421;49.142;9.232;2023-11-21T07:15:28;11.70;99.90
20526;DHT22;10421;49.142;9.232;2023-11-21T07:17:55;11.70;99.90
20526;DHT22;10421;49.142;9.232;2023-11-21T07:20:22;11.70;99.90
20526;DHT22;10421;49.142;9.232;2023-11-21T07:22:49;11.70;99.90
20526;DHT22;10421;49.142;9.232;2023-11-21T07:25:15;11.70;99.90
20526;DHT22;10421;49.142;9.232;2023-11-21T07:27:42;11.70;99.90
20526;DHT22;10421;49.142;9.232;2023-11-21T07:30:11;11.70;99.90
20526;DHT22;10421;49.142;9.232;2023-11-21T07:32:40;11.70;99.90
20526;DHT22;10421;49.142;9.232;2023-11-21T07:35:07;11.70;99.90
20526;DHT22;10421;49.142;9.232;2023-11-21T07:37:34;11.70;99.90
20526;DHT22;10421;49.142;9.232;2023-11-21T07:40:01;11.70;99.90
20526;DHT22;10421;49.142;9.232;2023-11-21T07:42:28;11.70;99.90
20526;DHT22;10421;49.142;9.232;2023-11-21T07:44:55;11.70;99.90
20526;DHT22;10421;49.142;9.232;2023-11-21T07:47:21;11.70;99.90
20526;DHT22;10421;49.142;9.232;2023-11-21T07:49:54;11.70;99.90
20526;DHT22;10421;49.142;9.232;2023-11-21T07:52:21;11.70;99.90
20526;DHT22;10421;49.142;9.232;2023-11-21T07:54:48;11.70;99.90
20526;DHT22;10421;49.142;9.232;2023-11-21T07:57:14;11.70;99.90
20526;DHT22;10421;49.142;9.232;2023-11-21T07:59:41;11.60;99.90
20526;DHT22;10421;49.142;9.232;2023-11-21T08:02:08;11.70;99.90
20526;DHT22;10421;49.142;9.232;2023-11-21T08:04:35;11.70;99.90
20526;DHT22;10421;49.142;9.232;2023-11-21T08:07:03;11.70;99.90
20526;DHT22;10421;49.142;9.232;2023-11-21T08:09:30;11.80;99.90
20526;DHT22;10421;49.142;9.232;2023-11-21T08:11:56;11.90;99.90
20526;DHT22;10421;49.142;9.232;2023-11-21T08:14:23;12.00;99.90
20526;DHT22;10421;49.142;9.232;2023-11-21T08:16:50;12.00;99.90
20526;DHT22;10421;49.142;9.232;2023-11-21T08:19:17;12.00;99.90
20526;DHT22;10421;49.142;9.232;2023-11-21T08:21:44;12.00;99.90
20526;DHT22;10421;49.142;9.232;2023-11-21T08:24:12;12.00;99.90
20526;DHT22;10421;49.142;9.232;2023-11-21T08:26:39;12.00;99.90
20526;DHT22;10421;49.142;9.232;2023-11-21T08:29:06;12.00;99.90
20526;DHT22;10421;49.142;9.232;2023-11-21T08:31:34;12.10;99.90
20526;DHT22;10421;49.142;9.232;2023-11-21T08:34:00;12.10;99.90
20526;DHT22;10421;49.142;9.232;2023-11-21T08:36:28;12.10;99.90
20526;DHT22;10421;49.142;9.232;2023-11-21T08:38:57;12.00;99.90
20526;DHT22;10421;49.142;9.232;2023-11-21T08:41:25;12.00;99.90
20526;DHT22;10421;49.142;9.232;2023-11-21T08:43:53;12.10;99.90
20526;DHT22;10421;49.142;9.232;2023-11-21T08:46:20;12.10;99.90
20526;DHT22;10421;49.142;9.232;2023-11-21T08:48:48;12.10;99.90
20526;DHT22;10421;49.142;9.232;2023-11-21T08:51:18;12.00;99.90
20526;DHT22;10421;49.142;9.232;2023-11-21T08:53:45;12.00;99.90
20526;DHT22;10421;49.142;9.232;2023-11-21T08:56:12;12.10;99.90
20526;DHT22;10421;49.142;9.232;2023-11-21T08:58:40;12.10;99.90
20526;DHT22;10421;49.142;9.232;2023-11-21T09:01:08;12.10;99.90
20526;DHT22;10421;49.142;9.232;2023-11-21T09:03:34;12.10;99.90
20526;DHT22;10421;49.142;9.232;2023-11-21T09:06:02;12.10;99.90
20526;DHT22;10421;49.142;9.232;2023-11-21T09:08:29;12.10;99.90
20526;DHT22;10421;49.142;9.232;2023-11-21T09:10:56;12.10;99.90
20526;DHT22;10421;49.142;9.232;2023-11-21T09:13:22;12.10;99.90
20526;DHT22;10421;49.142;9.232;2023-11-21T09:15:51;12.10;99.90
20526;DHT22;10421;49.142;9.232;2023-11-21T09:18:18;12.10;99.90
20526;DHT22;10421;49.142;9.232;2023-11-21T09:20:45;12.10;99.90
20526;DHT22;10421;49.142;9.232;2023-11-21T09:23:12;12.10;99.90
20526;DHT22;10421;49.142;9.232;2023-11-21T09:25:39;12.20;99.90
20526;DHT22;10421;49.142;9.232;2023-11-21T09:28:05;12.20;99.90
20526;DHT22;10421;49.142;9.232;2023-11-21T09:30:33;12.30;99.90
20526;DHT22;10421;49.142;9.232;2023-11-21T09:33:02;12.30;99.90
20526;DHT22;10421;49.142;9.232;2023-11-21T09:35:30;12.40;99.90
20526;DHT22;10421;49.142;9.232;2023-11-21T09:37:57;12.50;99.90
20526;DHT22;10421;49.142;9.232;2023-11-21T09:40:24;12.50;99.90
20526;DHT22;10421;49.142;9.232;2023-11-21T09:42:54;12.60;99.90
20526;DHT22;10421;49.142;9.232;2023-11-21T09:45:25;12.60;99.90
20526;DHT22;10421;49.142;9.232;2023-11-21T09:47:53;12.60;99.90
20526;DHT22;10421;49.142;9.232;2023-11-21T09:50:23;12.70;99.90
20526;DHT22;10421;49.142;9.232;2023-11-21T09:52:55;12.80;99.90
20526;DHT22;10421;49.142;9.232;2023-11-21T09:55:25;12.80;99.90
20526;DHT22;10421;49.142;9.232;2023-11-21T09:57:54;12.90;99.90
20526;DHT22;10421;49.142;9.232;2023-11-21T10:00:22;12.90;99.90
20526;DHT22;10421;49.142;9.232;2023-11-21T10:02:50;13.00;99.90
20526;DHT22;10421;49.142;9.232;2023-11-21T10:05:18;13.10;99.90
20526;DHT22;10421;49.142;9.232;2023-11-21T10:07:47;13.00;99.90
20526;DHT22;10421;49.142;9.232;2023-11-21T10:10:14;13.10;99.90
20526;DHT22;10421;49.142;9.232;2023-11-21T10:12:48;13.10;99.90
20526;DHT22;10421;49.142;9.232;2023-11-21T10:15:16;13.20;99.90
20526;DHT22;10421;49.142;9.232;2023-11-21T10:17:44;13.50;99.90
20526;DHT22;10421;49.142;9.232;2023-11-21T10:20:11;13.60;99.90
20526;DHT22;10421;49.142;9.232;2023-11-21T10:22:40;13.70;99.90
20526;DHT22;10421;49.142;9.232;2023-11-21T10:25:09;13.70;99.90
20526;DHT22;10421;49.142;9.232;2023-11-21T10:27:36;13.70;99.90
20526;DHT22;10421;49.142;9.232;2023-11-21T10:30:05;13.80;99.90
20526;DHT22;10421;49.142;9.232;2023-11-21T10:32:37;13.80;99.90
20526;DHT22;10421;49.142;9.232;2023-11-21T10:35:06;13.70;99.90
20526;DHT22;10421;49.142;9.232;2023-11-21T10:37:35;13.80;99.90
20526;DHT22;10421;49.142;9.232;2023-11-21T10:40:05;13.80;99.90
20526;DHT22;10421;49.142;9.232;2023-11-21T10:42:34;13.80;99.90
20526;DHT22;10421;49.142;9.232;2023-11-21T10:45:00;13.80;99.90
20526;DHT22;10421;49.142;9.232;2023-11-21T10:47:28;13.70;99.90
20526;DHT22;10421;49.142;9.232;2023-11-21T10:49:57;13.70;99.90
20526;DHT22;10421;49.142;9.232;2023-11-21T10:52:27;13.80;99.90
20526;DHT22;10421;49.142;9.232;2023-11-21T10:54:54;13.80;99.90
20526;DHT22;10421;49.142;9.232;2023-11-21T10:57:22;13.80;99.90
20526;DHT22;10421;49.142;9.232;2023-11-21T10:59:50;13.80;99.90
20526;DHT22;10421;49.142;9.232;2023-11-21T11:02:23;13.80;99.90
20526;DHT22;10421;49.142;9.232;2023-11-21T11:04:54;13.80;99.90
20526;DHT22;10421;49.142;9.232;2023-11-21T11:07:25;13.80;99.90
20526;DHT22;10421;49.142;9.232;2023-11-21T11:09:53;13.70;99.90
20526;DHT22;10421;49.142;9.232;2023-11-21T11:12:20;13.70;99.90
20526;DHT22;10421;49.142;9.232;2023-11-21T11:14:49;13.70;99.90
20526;DHT22;10421;49.142;9.232;2023-11-21T11:17:19;13.60;99.90
20526;DHT22;10421;49.142;9.232;2023-11-21T11:19:46;13.50;99.90
20526;DHT22;10421;49.142;9.232;2023-11-21T11:22:24;13.50;99.90
20526;DHT22;10421;49.142;9.232;2023-11-21T11:25:06;13.50;99.90
20526;DHT22;10421;49.142;9.232;2023-11-21T11:27:47;13.50;99.90
20526;DHT22;10421;49.142;9.232;2023-11-21T11:30:27;13.40;99.90
20526;DHT22;10421;49.142;9.232;2023-11-21T11:33:09;13.40;99.90
20526;DHT22;10421;49.142;9.232;2023-11-21T11:35:47;13.40;99.90
20526;DHT22;10421;49.142;9.232;2023-11-21T11:38:15;13.40;99.90
20526;DHT22;10421;49.142;9.232;2023-11-21T11:40:45;13.40;99.90
20526;DHT22;10421;49.142;9.232;2023-11-21T11:43:13;13.40;99.90
20526;DHT22;10421;49.142;9.232;2023-11-21T11:45:43;13.40;99.90
20526;DHT22;10421;49.142;9.232;2023-11-21T11:48:16;13.40;99.90
20526;DHT22;10421;49.142;9.232;2023-11-21T11:51:01;13.40;99.90
20526;DHT22;10421;49.142;9.232;2023-11-21T11:53:35;13.40;99.90
20526;DHT22;10421;49.142;9.232;2023-11-21T11:56:22;13.40;99.90
20526;DHT22;10421;49.142;9.232;2023-11-21T11:58:51;13.40;99.90
20526;DHT22;10421;49.142;9.232;2023-11-21T12:01:20;13.40;99.90
20526;DHT22;10421;49.142;9.232;2023-11-21T12:04:25;13.50;99.90
20526;DHT22;10421;49.142;9.232;2023-11-21T12:07:00;13.60;99.90
20526;DHT22;10421;49.142;9.232;2023-11-21T12:09:29;13.60;99.90
20526;DHT22;10421;49.142;9.232;2023-11-21T12:11:57;13.70;99.90
20526;DHT22;10421;49.142;9.232;2023-11-21T12:14:24;13.70;99.90
20526;DHT22;10421;49.142;9.232;2023-11-21T12:16:52;13.70;99.90
20526;DHT22;10421;49.142;9.232;2023-11-21T12:19:19;13.80;99.90
20526;DHT22;10421;49.142;9.232;2023-11-21T12:21:48;13.80;99.90
20526;DHT22;10421;49.142;9.232;2023-11-21T12:24:15;13.90;99.90
20526;DHT22;10421;49.142;9.232;2023-11-21T12:26:43;13.90;99.90
20526;DHT22;10421;49.142;9.232;2023-11-21T12:29:10;13.90;99.90
20526;DHT22;10421;49.142;9.232;2023-11-21T12:31:37;14.00;99.90
20526;DHT22;10421;49.142;9.232;2023-11-21T12:34:05;14.10;99.90
20526;DHT22;10421;49.142;9.232;2023-11-21T12:36:32;14.40;99.90
20526;DHT22;10421;49.142;9.232;2023-11-21T12:39:00;14.60;99.90
20526;DHT22;10421;49.142;9.232;2023-11-21T12:41:28;14.60;99.90
20526;DHT22;10421;49.142;9.232;2023-11-21T12:43:55;14.80;99.90
20526;DHT22;10421;49.142;9.232;2023-11-21T12:46:23;15.00;99.90
20526;DHT22;10421;49.142;9.232;2023-11-21T12:48:51;15.10;99.90
20526;DHT22;10421;49.142;9.232;2023-11-21T12:51:20;15.10;99.90
20526;DHT22;10421;49.142;9.232;2023-11-21T12:53:47;15.20;99.90
20526;DHT22;10421;49.142;9.232;2023-11-21T12:56:14;15.10;99.90
20526;DHT22;10421;49.142;9.232;2023-11-21T12:58:45;15.10;99.90
20526;DHT22;10421;49.142;9.232;2023-11-21T13:01:13;15.10;99.90
20526;DHT22;10421;49.142;9.232;2023-11-21T13:03:46;15.10;99.90
20526;DHT22;10421;49.142;9.232;2023-11-21T13:06:14;15.00;99.90
20526;DHT22;10421;49.142;9.232;2023-11-21T13:08:44;14.90;99.90
20526;DHT22;10421;49.142;9.232;2023-11-21T13:11:11;14.80;99.90
20526;DHT22;10421;49.142;9.232;2023-11-21T13:13:40;14.70;99.90
20526;DHT22;10421;49.142;9.232;2023-11-21T13:16:08;14.70;99.90
20526;DHT22;10421;49.142;9.232;2023-11-21T13:18:35;14.70;99.90
20526;DHT22;10421;49.142;9.232;2023-11-21T13:21:04;14.50;99.90
20526;DHT22;10421;49.142;9.232;2023-11-21T13:23:35;14.60;99.90
20526;DHT22;10421;49.142;9.232;2023-11-21T13:26:05;14.50;99.90
20526;DHT22;10421;49.142;9.232;2023-11-21T13:28:32;14.40;99.90
20526;DHT22;10421;49.142;9.232;2023-11-21T13:31:00;14.40;99.90
20526;DHT22;10421;49.142;9.232;2023-11-21T13:33:29;14.30;99.90
20526;DHT22;10421;49.142;9.232;2023-11-21T13:35:58;14.30;99.90
20526;DHT22;10421;49.142;9.232;2023-11-21T13:38:27;14.20;99.90
20526;DHT22;10421;49.142;9.232;2023-11-21T13:40:58;14.10;99.90
20526;DHT22;10421;49.142;9.232;2023-11-21T13:43:26;14.20;99.90
20526;DHT22;10421;49.142;9.232;2023-11-21T13:45:54;14.10;99.90
20526;DHT22;10421;49.142;9.232;2023-11-21T13:48:25;14.10;99.90
20526;DHT22;10421;49.142;9.232;2023-11-21T13:50:58;14.10;99.90
20526;DHT22;10421;49.142;9.232;2023-11-21T13:53:31;14.10;99.90
20526;DHT22;10421;49.142;9.232;2023-11-21T13:55:58;14.10;99.90
20526;DHT22;10421;49.142;9.232;2023-11-21T13:58:26;14.10;99.90
20526;DHT22;10421;49.142;9.232;2023-11-21T14:01:06;14.10;99.90
20526;DHT22;10421;49.142;9.232;2023-11-21T14:03:42;14.10;99.90
20526;DHT22;10421;49.142;9.232;2023-11-21T14:06:17;14.10;99.90
20526;DHT22;10421;49.142;9.232;2023-11-21T14:08:49;14.20;99.90
20526;DHT22;10421;49.142;9.232;2023-11-21T14:11:16;14.20;99.90
20526;DHT22;10421;49.142;9.232;2023-11-21T14:13:45;14.20;99.90
20526;DHT22;10421;49.142;9.232;2023-11-21T14:16:14;14.20;99.90
20526;DHT22;10421;49.142;9.232;2023-11-21T14:18:42;14.20;99.90
20526;DHT22;10421;49.142;9.232;2023-11-21T14:21:18;14.20;99.90
20526;DHT22;10421;49.142;9.232;2023-11-21T14:23:45;14.20;99.90
20526;DHT22;10421;49.142;9.232;2023-11-21T14:26:12;14.20;99.90
20526;DHT22;10421;49.142;9.232;2023-11-21T14:28:39;14.40;99.90
20526;DHT22;10421;49.142;9.232;2023-11-21T14:31:08;14.60;99.90
20526;DHT22;10421;49.142;9.232;2023-11-21T14:33:38;14.80;99.90
20526;DHT22;10421;49.142;9.232;2023-11-21T14:36:06;15.00;99.90
20526;DHT22;10421;49.142;9.232;2023-11-21T14:38:35;15.20;99.90
20526;DHT22;10421;49.142;9.232;2023-11-21T14:41:02;15.40;99.90
20526;DHT22;10421;49.142;9.232;2023-11-21T14:43:32;15.50;99.90
20526;DHT22;10421;49.142;9.232;2023-11-21T14:46:00;15.60;99.90
20526;DHT22;10421;49.142;9.232;2023-11-21T14:48:30;15.60;99.90
20526;DHT22;10421;49.142;9.232;2023-11-21T14:51:08;15.50;99.90
20526;DHT22;10421;49.142;9.232;2023-11-21T14:53:56;15.40;99.90
20526;DHT22;10421;49.142;9.232;2023-11-21T14:56:26;15.40;99.90
20526;DHT22;10421;49.142;9.232;2023-11-21T14:58:56;15.40;99.90
20526;DHT22;10421;49.142;9.232;2023-11-21T15:01:23;15.30;99.90
20526;DHT22;10421;49.142;9.232;2023-11-21T15:04:09;15.20;99.90
20526;DHT22;10421;49.142;9.232;2023-11-21T15:06:46;15.10;99.90
20526;DHT22;10421;49.142;9.232;2023-11-21T15:09:13;15.00;99.90
20526;DHT22;10421;49.142;9.232;2023-11-21T15:12:02;14.80;99.90
20526;DHT22;10421;49.142;9.232;2023-11-21T15:14:39;14.70;99.90
20526;DHT22;10421;49.142;9.232;2023-11-21T15:17:06;14.70;99.90
20526;DHT22;10421;49.142;9.232;2023-11-21T15:19:34;14.60;99.90
20526;DHT22;10421;49.142;9.232;2023-11-21T15:22:01;14.50;99.90
20526;DHT22;10421;49.142;9.232;2023-11-21T15:24:28;14.50;99.90
20526;DHT22;10421;49.142;9.232;2023-11-21T15:26:55;14.40;99.90
20526;DHT22;10421;49.142;9.232;2023-11-21T15:29:22;14.40;99.90
20526;DHT22;10421;49.142;9.232;2023-11-21T15:31:49;14.20;99.90
20526;DHT22;10421;49.142;9.232;2023-11-21T15:34:19;14.20;99.90
20526;DHT22;10421;49.142;9.232;2023-11-21T15:36:47;14.20;99.90